createdAt,value
2019-01-12T00:01:50.116Z,96648.41
2019-01-12T00:04:17.195Z,96654.03
2019-01-12T00:06:44.289Z,96651.88
2019-01-12T00:09:12.386Z,96647.42
2019-01-12T00:11:39.710Z,96651.37
2019-01-12T00:14:06.752Z,96646.91
2019-01-12T00:16:33.796Z,96641.47
2019-01-12T00:19:00.842Z,96651.05
2019-01-12T00:21:27.908Z,96650.06
2019-01-12T00:23:54.958Z,96652.54
2019-01-12T00:26:22.002Z,96656.50
2019-01-12T00:28:49.083Z,96659.31
2019-01-12T00:31:16.188Z,96659.64
2019-01-12T00:33:43.217Z,96655.36
2019-01-12T00:36:10.260Z,96650.91
2019-01-12T00:38:37.303Z,96657.68
2019-01-12T00:41:04.350Z,96664.13
2019-01-12T00:43:31.409Z,96661.28
2019-01-12T00:45:58.491Z,96655.50
2019-01-12T00:48:25.564Z,96656.50
2019-01-12T00:50:52.627Z,96661.30
2019-01-12T00:53:19.686Z,96660.30
2019-01-12T00:55:46.781Z,96653.70
2019-01-12T00:58:13.814Z,96662.29
2019-01-12T01:00:40.871Z,96654.70
2019-01-12T01:03:07.937Z,96659.33
2019-01-12T01:05:34.974Z,96672.88
2019-01-12T01:08:02.046Z,96675.84
2019-01-12T01:10:29.116Z,96678.16
2019-01-12T01:12:56.181Z,96681.62
2019-01-12T01:15:23.239Z,96688.90
2019-01-12T01:17:50.344Z,96685.10
2019-01-12T01:20:17.502Z,96688.58
2019-01-12T01:22:44.546Z,96697.83
2019-01-12T01:25:11.696Z,96691.55
2019-01-12T01:27:38.738Z,96694.00
2019-01-12T01:30:09.104Z,96692.02
2019-01-12T01:32:36.159Z,96692.69
2019-01-12T01:35:03.749Z,96707.23
2019-01-12T01:37:30.807Z,96697.48
2019-01-12T01:39:57.843Z,96687.41
2019-01-12T01:42:24.913Z,96700.13
2019-01-12T01:44:51.977Z,96697.66
2019-01-12T01:47:19.035Z,96686.91
2019-01-12T01:49:46.124Z,96697.98
2019-01-12T01:52:13.169Z,96699.94
2019-01-12T01:54:40.201Z,96706.89
2019-01-12T01:57:07.239Z,96718.30
2019-01-12T01:59:34.295Z,96713.84
2019-01-12T02:02:01.334Z,96711.86
2019-01-12T02:04:28.372Z,96701.11
2019-01-12T02:06:55.422Z,96703.26
2019-01-12T02:09:22.472Z,96691.03
2019-01-12T02:11:49.514Z,96689.71
2019-01-12T02:14:16.660Z,96697.11
2019-01-12T02:16:43.688Z,96690.01
2019-01-12T02:19:10.720Z,96694.30
2019-01-12T02:21:37.770Z,96693.97
2019-01-12T02:24:04.817Z,96692.66
2019-01-12T02:26:31.849Z,96698.14
2019-01-12T02:28:58.882Z,96690.84
2019-01-12T02:31:25.941Z,96699.59
2019-01-12T02:33:53.012Z,96699.93
2019-01-12T02:36:20.050Z,96691.16
2019-01-12T02:38:47.082Z,96698.28
2019-01-12T02:41:14.121Z,96695.96
2019-01-12T02:43:41.156Z,96697.95
2019-01-12T02:46:08.180Z,96694.80
2019-01-12T02:48:35.223Z,96690.34
2019-01-12T02:51:02.242Z,96689.18
2019-01-12T02:53:29.267Z,96693.94
2019-01-12T02:55:56.289Z,96692.95
2019-01-12T02:58:23.333Z,96683.86
2019-01-12T03:00:50.401Z,96697.08
2019-01-12T03:03:17.454Z,96697.91
2019-01-12T03:05:44.473Z,96695.27
2019-01-12T03:08:11.574Z,96697.91
2019-01-12T03:10:38.544Z,96702.54
2019-01-12T03:13:05.606Z,96692.78
2019-01-12T03:15:32.648Z,96694.27
2019-01-12T03:17:59.698Z,96689.30
2019-01-12T03:20:26.745Z,96687.98
2019-01-12T03:22:53.810Z,96689.93
2019-01-12T03:25:20.853Z,96691.25
2019-01-12T03:27:47.891Z,96686.29
2019-01-12T03:30:16.579Z,96689.59
2019-01-12T03:32:43.646Z,96682.16
2019-01-12T03:35:10.752Z,96685.30
2019-01-12T03:37:37.816Z,96690.25
2019-01-12T03:40:06.527Z,96695.55
2019-01-12T03:42:33.538Z,96697.53
2019-01-12T03:45:00.599Z,96693.56
2019-01-12T03:47:27.626Z,96689.91
2019-01-12T03:49:54.683Z,96695.21
2019-01-12T03:52:21.729Z,96683.30
2019-01-12T03:54:48.776Z,96668.74
2019-01-12T03:57:15.818Z,96662.95
2019-01-12T03:59:42.846Z,96665.10
2019-01-12T04:02:09.866Z,96661.78
2019-01-12T04:04:38.027Z,96665.26
2019-01-12T04:07:05.134Z,96666.25
2019-01-12T04:09:32.168Z,96657.64
2019-01-12T04:11:59.202Z,96661.95
2019-01-12T04:14:26.233Z,96664.39
2019-01-12T04:16:53.346Z,96658.27
2019-01-12T04:19:20.366Z,96659.41
2019-01-12T04:21:47.431Z,96660.74
2019-01-12T04:24:14.448Z,96663.06
2019-01-12T04:26:41.492Z,96655.78
2019-01-12T04:29:08.509Z,96667.20
2019-01-12T04:31:35.535Z,96661.91
2019-01-12T04:34:02.564Z,96658.10
2019-01-12T04:36:29.602Z,96658.10
2019-01-12T04:38:56.649Z,96651.66
2019-01-12T04:41:23.676Z,96661.41
2019-01-12T04:43:50.722Z,96654.30
2019-01-12T04:46:17.759Z,96660.74
2019-01-12T04:48:44.791Z,96656.93
2019-01-12T04:51:11.828Z,96651.64
2019-01-12T04:53:38.973Z,96654.61
2019-01-12T04:56:05.994Z,96655.44
2019-01-12T04:58:33.031Z,96659.73
2019-01-12T05:01:00.060Z,96653.11
2019-01-12T05:03:27.119Z,96656.92
2019-01-12T05:05:54.158Z,96662.22
2019-01-12T05:08:21.202Z,96652.62
2019-01-12T05:10:48.218Z,96658.91
2019-01-12T05:13:15.253Z,96651.14
2019-01-12T05:15:42.306Z,96645.02
2019-01-12T05:18:09.345Z,96650.14
2019-01-12T05:20:36.389Z,96644.67
2019-01-12T05:23:03.419Z,96651.12
2019-01-12T05:25:30.445Z,96648.31
2019-01-12T05:27:57.477Z,96648.14
2019-01-12T05:30:24.520Z,96643.50
2019-01-12T05:32:51.541Z,96644.62
2019-01-12T05:35:18.633Z,96654.05
2019-01-12T05:37:45.683Z,96650.24
2019-01-12T05:40:12.877Z,96652.22
2019-01-12T05:42:39.950Z,96648.91
2019-01-12T05:45:07.452Z,96648.41
2019-01-12T05:47:34.563Z,96655.85
2019-01-12T05:50:01.641Z,96662.80
2019-01-12T05:52:29.005Z,96664.95
2019-01-12T05:54:56.111Z,96664.45
2019-01-12T05:57:23.172Z,96653.86
2019-01-12T05:59:50.299Z,96660.31
2019-01-12T06:02:17.321Z,96654.34
2019-01-12T06:04:44.394Z,96658.80
2019-01-12T06:07:11.453Z,96657.60
2019-01-12T06:09:38.532Z,96656.98
2019-01-12T06:12:05.588Z,96649.70
2019-01-12T06:14:32.675Z,96645.89
2019-01-12T06:16:59.750Z,96649.03
2019-01-12T06:19:26.789Z,96656.16
2019-01-12T06:21:53.842Z,96665.92
2019-01-12T06:24:20.874Z,96666.25
2019-01-12T06:26:47.894Z,96662.28
2019-01-12T06:29:14.957Z,96666.08
2019-01-12T06:31:41.966Z,96659.91
2019-01-12T06:34:09.005Z,96667.69
2019-01-12T06:36:36.075Z,96656.92
2019-01-12T06:39:06.912Z,96656.08
2019-01-12T06:41:33.993Z,96655.58
2019-01-12T06:44:00.982Z,96652.43
2019-01-12T06:46:28.037Z,96659.88
2019-01-12T06:48:55.068Z,96662.85
2019-01-12T06:51:22.106Z,96665.67
2019-01-12T06:53:49.198Z,96664.35
2019-01-12T06:56:16.218Z,96655.23
2019-01-12T06:58:43.276Z,96653.25
2019-01-12T07:01:10.327Z,96662.20
2019-01-12T07:03:37.368Z,96660.88
2019-01-12T07:06:04.422Z,96662.20
2019-01-12T07:08:31.796Z,96670.64
2019-01-12T07:10:58.837Z,96677.59
2019-01-12T07:13:25.875Z,96672.13
2019-01-12T07:15:52.972Z,96675.59
2019-01-12T07:18:20.006Z,96678.41
2019-01-12T07:20:47.064Z,96680.06
2019-01-12T07:23:14.111Z,96680.06
2019-01-12T07:25:41.159Z,96682.53
2019-01-12T07:28:08.183Z,96685.31
2019-01-12T07:30:35.217Z,96682.28
2019-01-12T07:33:02.261Z,96692.14
2019-01-12T07:35:29.316Z,96692.75
2019-01-12T07:37:56.357Z,96688.36
2019-01-12T07:40:23.415Z,96694.27
2019-01-12T07:42:50.441Z,96689.41
2019-01-12T07:45:17.481Z,96685.41
2019-01-12T07:47:44.501Z,96681.84
2019-01-12T07:50:12.816Z,96685.82
2019-01-12T07:52:39.857Z,96683.70
2019-01-12T07:55:07.136Z,96680.55
2019-01-12T07:57:34.188Z,96686.00
2019-01-12T08:00:02.262Z,96686.05
2019-01-12T08:02:29.298Z,96691.41
2019-01-12T08:04:56.329Z,96688.23
2019-01-12T08:07:23.371Z,96684.08
2019-01-12T08:09:50.421Z,96686.84
2019-01-12T08:12:17.441Z,96689.88
2019-01-12T08:14:44.478Z,96688.75
2019-01-12T08:17:11.559Z,96686.00
2019-01-12T08:19:38.590Z,96691.30
2019-01-12T08:22:05.634Z,96692.30
2019-01-12T08:24:32.682Z,96692.63
2019-01-12T08:26:59.758Z,96700.59
2019-01-12T08:29:26.781Z,96690.98
2019-01-12T08:31:53.831Z,96690.30
2019-01-12T08:34:20.901Z,96692.11
2019-01-12T08:36:47.921Z,96687.42
2019-01-12T08:39:14.985Z,96685.92
2019-01-12T08:41:42.038Z,96680.45
2019-01-12T08:44:09.064Z,96680.27
2019-01-12T08:46:36.090Z,96673.79
2019-01-12T08:49:03.141Z,96678.23
2019-01-12T08:51:30.178Z,96678.56
2019-01-12T08:53:57.250Z,96685.20
2019-01-12T08:56:24.345Z,96681.22
2019-01-12T08:58:51.371Z,96687.52
2019-01-12T09:01:18.398Z,96690.35
2019-01-12T09:03:45.440Z,96689.20
2019-01-12T09:06:12.508Z,96684.72
2019-01-12T09:08:39.540Z,96684.89
2019-01-12T09:11:06.620Z,96701.81
2019-01-12T09:13:33.655Z,96691.20
2019-01-12T09:16:00.726Z,96690.70
2019-01-12T09:18:27.798Z,96690.70
2019-01-12T09:20:54.858Z,96688.88
2019-01-12T09:23:22.759Z,96697.83
2019-01-12T09:25:49.820Z,96696.51
2019-01-12T09:28:16.866Z,96698.66
2019-01-12T09:30:48.402Z,96695.18
2019-01-12T09:33:13.161Z,96692.53
2019-01-12T09:35:40.294Z,96692.67
2019-01-12T09:38:07.354Z,96694.48
2019-01-12T09:40:34.383Z,96691.66
2019-01-12T09:43:01.434Z,96688.77
2019-01-12T09:45:28.458Z,96685.08
2019-01-12T09:47:55.498Z,96677.09
2019-01-12T09:50:22.587Z,96675.41
2019-01-12T09:52:50.088Z,96671.94
2019-01-12T09:55:17.144Z,96671.94
2019-01-12T09:57:44.190Z,96670.11
2019-01-12T10:00:19.293Z,96671.76
2019-01-12T10:02:46.465Z,96666.12
2019-01-12T10:05:13.513Z,96667.27
2019-01-12T10:07:40.555Z,96668.42
2019-01-12T10:10:10.429Z,96661.28
2019-01-12T10:12:37.489Z,96657.81
2019-01-12T10:15:05.124Z,96658.45
2019-01-12T10:17:32.180Z,96660.87
2019-01-12T10:19:59.220Z,96655.20
2019-01-12T10:22:28.635Z,96653.34
2019-01-12T10:24:55.239Z,96642.87
2019-01-12T10:27:22.294Z,96641.30
2019-01-12T10:29:49.384Z,96640.93
2019-01-12T10:32:16.413Z,96636.45
2019-01-12T10:34:43.473Z,96638.92
2019-01-12T10:37:10.551Z,96639.25
2019-01-12T10:39:37.629Z,96637.41
2019-01-12T10:42:04.679Z,96631.28
2019-01-12T10:44:31.707Z,96628.95
2019-01-12T10:46:58.761Z,96627.55
2019-01-12T10:49:25.819Z,96626.10
2019-01-12T10:51:52.882Z,96620.89
2019-01-12T10:54:19.935Z,96614.71
2019-01-12T10:56:46.975Z,96621.14
2019-01-12T10:59:14.032Z,96615.83
2019-01-12T11:01:41.108Z,96615.96
2019-01-12T11:04:08.132Z,96623.56
2019-01-12T11:06:35.174Z,96622.88
2019-01-12T11:09:03.796Z,96617.25
2019-01-12T11:11:31.475Z,96614.09
2019-01-12T11:13:58.532Z,96611.61
2019-01-12T11:16:25.630Z,96611.43
2019-01-12T11:18:52.689Z,96614.04
2019-01-12T11:21:19.786Z,96607.08
2019-01-12T11:23:46.849Z,96613.72
2019-01-12T11:26:13.917Z,96609.92
2019-01-12T11:28:41.081Z,96603.28
2019-01-12T11:31:08.453Z,96605.80
2019-01-12T11:33:35.530Z,96599.80
2019-01-12T11:36:02.597Z,96602.41
2019-01-12T11:38:29.675Z,96593.11
2019-01-12T11:40:56.769Z,96597.78
2019-01-12T11:43:23.877Z,96591.97
2019-01-12T11:45:50.946Z,96592.47
2019-01-12T11:48:18.016Z,96587.16
2019-01-12T11:50:45.102Z,96590.00
2019-01-12T11:53:12.228Z,96587.66
2019-01-12T11:55:39.324Z,96590.00
2019-01-12T11:58:06.369Z,96577.91
2019-01-12T12:00:33.422Z,96581.52
2019-01-12T12:03:00.489Z,96584.23
2019-01-12T12:05:27.533Z,96582.39
2019-01-12T12:07:54.864Z,96577.27
2019-01-12T12:10:22.067Z,96574.80
2019-01-12T12:12:49.141Z,96576.63
2019-01-12T12:15:16.942Z,96567.59
2019-01-12T12:17:44.025Z,96564.57
2019-01-12T12:20:16.359Z,96551.53
2019-01-12T12:22:43.397Z,96545.66
2019-01-12T12:25:10.462Z,96542.95
2019-01-12T12:27:37.506Z,96536.58
2019-01-12T12:30:06.501Z,96535.67
2019-01-12T12:32:33.564Z,96535.36
2019-01-12T12:35:00.621Z,96541.67
2019-01-12T12:37:27.668Z,96533.61
2019-01-12T12:39:54.743Z,96529.80
2019-01-12T12:42:21.869Z,96519.88
2019-01-12T12:44:48.940Z,96521.52
2019-01-12T12:47:15.985Z,96517.66
2019-01-12T12:49:43.088Z,96504.16
2019-01-12T12:52:10.145Z,96500.44
2019-01-12T12:54:37.244Z,96502.73
2019-01-12T12:57:04.327Z,96496.72
2019-01-12T12:59:31.409Z,96483.44
2019-01-12T13:01:58.507Z,96487.42
2019-01-12T13:04:25.597Z,96490.72
2019-01-12T13:06:52.701Z,96480.27
2019-01-12T13:09:19.788Z,96486.09
2019-01-12T13:11:46.903Z,96483.12
2019-01-12T13:14:13.998Z,96483.75
2019-01-12T13:16:41.111Z,96482.93
2019-01-12T13:19:08.176Z,96481.66
2019-01-12T13:21:35.287Z,96470.58
2019-01-12T13:24:02.410Z,96467.51
2019-01-12T13:26:29.456Z,96471.87
2019-01-12T13:28:56.556Z,96478.70
2019-01-12T13:31:23.728Z,96459.15
2019-01-12T13:33:50.959Z,96460.84
2019-01-12T13:36:18.082Z,96456.87
2019-01-12T13:38:45.232Z,96460.21
2019-01-12T13:41:12.334Z,96446.61
2019-01-12T13:43:39.484Z,96448.26
2019-01-12T13:46:06.578Z,96439.28
2019-01-12T13:48:33.690Z,96442.95
2019-01-12T13:51:00.808Z,96437.63
2019-01-12T13:53:27.914Z,96444.41
2019-01-12T13:55:57.296Z,96437.58
2019-01-12T13:58:24.397Z,96433.72
2019-01-12T14:00:51.558Z,96434.86
2019-01-12T14:03:18.923Z,96434.23
2019-01-12T14:05:46.305Z,96427.27
2019-01-12T14:08:13.424Z,96424.62
2019-01-12T14:10:40.557Z,96425.94
2019-01-12T14:13:07.982Z,96419.36
2019-01-12T14:15:35.314Z,96424.67
2019-01-12T14:18:02.630Z,96421.20
2019-01-12T14:20:34.706Z,96416.07
2019-01-12T14:23:01.815Z,96420.56
2019-01-12T14:25:28.947Z,96420.88
2019-01-12T14:27:56.016Z,96426.69
2019-01-12T14:30:23.093Z,96417.08
2019-01-12T14:32:50.240Z,96416.77
2019-01-12T14:35:17.536Z,96419.00
2019-01-12T14:37:44.647Z,96418.23
2019-01-12T14:40:13.916Z,96420.95
2019-01-12T14:42:41.321Z,96418.85
2019-01-12T14:45:11.737Z,96420.55
2019-01-12T14:47:38.813Z,96421.78
2019-01-12T14:50:06.777Z,96424.94
2019-01-12T14:52:33.853Z,96424.80
2019-01-12T14:55:00.981Z,96421.52
2019-01-12T14:57:28.117Z,96424.48
2019-01-12T14:59:55.250Z,96422.52
2019-01-12T15:02:23.197Z,96419.87
2019-01-12T15:04:50.430Z,96424.86
2019-01-12T15:07:17.543Z,96420.23
2019-01-12T15:09:44.625Z,96420.11
2019-01-12T15:12:13.606Z,96422.62
2019-01-12T15:14:40.604Z,96418.33
2019-01-12T15:17:07.699Z,96414.23
2019-01-12T15:19:34.851Z,96397.49
2019-01-12T15:22:02.012Z,96397.49
2019-01-12T15:24:29.097Z,96393.30
2019-01-12T15:26:56.241Z,96382.58
2019-01-12T15:29:23.366Z,96381.44
2019-01-12T15:31:50.488Z,96391.86
2019-01-12T15:34:17.594Z,96382.58
2019-01-12T15:36:45.142Z,96378.28
2019-01-12T15:39:12.291Z,96370.82
2019-01-12T15:41:39.426Z,96369.41
2019-01-12T15:44:06.576Z,96374.87
2019-01-12T15:46:33.687Z,96363.52
2019-01-12T15:49:00.869Z,96367.09
2019-01-12T15:51:30.749Z,96357.42
2019-01-12T15:53:57.891Z,96350.14
2019-01-12T15:56:25.011Z,96349.76
2019-01-12T15:58:52.144Z,96354.30
2019-01-12T16:01:19.306Z,96347.80
2019-01-12T16:03:46.442Z,96344.58
2019-01-12T16:06:13.607Z,96333.97
2019-01-12T16:08:40.711Z,96329.66
2019-01-12T16:11:08.108Z,96331.39
2019-01-12T16:13:35.230Z,96328.45
2019-01-12T16:16:02.397Z,96323.45
2019-01-12T16:18:29.783Z,96321.27
2019-01-12T16:20:56.936Z,96319.69
2019-01-12T16:23:24.077Z,96305.46
2019-01-12T16:25:51.309Z,96296.23
2019-01-12T16:28:23.251Z,96291.33
2019-01-12T16:30:50.519Z,96292.66
2019-01-12T16:33:17.824Z,96293.98
2019-01-12T16:35:44.924Z,96291.83
2019-01-12T16:38:12.094Z,96285.39
2019-01-12T16:40:39.236Z,96286.91
2019-01-12T16:43:07.394Z,96269.52
2019-01-12T16:45:34.537Z,96263.71
2019-01-12T16:48:01.993Z,96259.41
2019-01-12T16:50:31.173Z,96259.41
2019-01-12T16:52:58.586Z,96258.27
2019-01-12T16:55:25.732Z,96251.64
2019-01-12T16:57:52.892Z,96246.84
2019-01-12T17:00:27.622Z,96255.62
2019-01-12T17:02:54.784Z,96243.17
2019-01-12T17:05:22.032Z,96247.79
2019-01-12T17:07:50.327Z,96244.50
2019-01-12T17:10:18.434Z,96242.55
2019-01-12T17:12:47.548Z,96238.05
2019-01-12T17:15:16.593Z,96229.78
2019-01-12T17:17:43.750Z,96233.56
2019-01-12T17:20:16.263Z,96223.14
2019-01-12T17:22:43.622Z,96225.48
2019-01-12T17:25:10.755Z,96225.48
2019-01-12T17:27:38.232Z,96225.98
2019-01-12T17:30:08.838Z,96229.47
2019-01-12T17:32:35.983Z,96228.45
2019-01-12T17:35:03.940Z,96231.23
2019-01-12T17:37:31.059Z,96223.59
2019-01-12T17:39:58.214Z,96207.16
2019-01-12T17:42:28.181Z,96195.53
2019-01-12T17:44:55.294Z,96192.88
2019-01-12T17:47:22.472Z,96187.89
2019-01-12T17:49:49.623Z,96186.56
2019-01-12T17:52:17.039Z,96194.20
2019-01-12T17:54:44.185Z,96191.48
2019-01-12T17:57:11.335Z,96199.45
2019-01-12T17:59:38.761Z,96192.19
2019-01-12T18:02:06.006Z,96190.73
2019-01-12T18:04:33.189Z,96190.55
2019-01-12T18:07:00.314Z,96186.83
2019-01-12T18:09:27.549Z,96183.10
2019-01-12T18:11:54.719Z,96183.03
2019-01-12T18:14:21.905Z,96176.39
2019-01-12T18:16:51.066Z,96176.03
2019-01-12T18:19:18.198Z,96175.21
2019-01-12T18:21:45.359Z,96169.78
2019-01-12T18:24:12.488Z,96163.44
2019-01-12T18:26:39.687Z,96166.04
2019-01-12T18:29:07.102Z,96163.14
2019-01-12T18:31:34.265Z,96154.93
2019-01-12T18:34:01.464Z,96162.30
2019-01-12T18:36:30.458Z,96151.68
2019-01-12T18:38:57.637Z,96161.66
2019-01-12T18:41:24.853Z,96154.40
2019-01-12T18:43:52.033Z,96152.37
2019-01-12T18:46:19.190Z,96160.34
2019-01-12T18:48:46.825Z,96159.83
2019-01-12T18:51:16.369Z,96155.97
2019-01-12T18:53:44.937Z,96140.24
2019-01-12T18:56:12.544Z,96139.11
2019-01-12T18:58:39.892Z,96141.45
2019-01-12T19:01:07.134Z,96137.78
2019-01-12T19:03:34.768Z,96142.27
2019-01-12T19:06:02.217Z,96139.80
2019-01-12T19:08:29.455Z,96148.27
2019-01-12T19:10:56.672Z,96132.92
2019-01-12T19:13:24.280Z,96138.42
2019-01-12T19:15:52.885Z,96136.66
2019-01-12T19:18:20.913Z,96125.83
2019-01-12T19:20:48.535Z,96116.10
2019-01-12T19:23:18.826Z,96110.87
2019-01-12T19:25:47.692Z,96088.39
2019-01-12T19:28:16.092Z,96085.61
2019-01-12T19:30:43.465Z,96074.18
2019-01-12T19:33:10.848Z,96071.21
2019-01-12T19:35:38.281Z,96076.73
2019-01-12T19:38:05.823Z,96062.66
2019-01-12T19:40:35.131Z,96053.76
2019-01-12T19:43:04.704Z,96053.63
2019-01-12T19:45:34.348Z,96053.32
2019-01-12T19:48:02.115Z,96055.03
2019-01-12T19:50:29.478Z,96052.06
2019-01-12T19:52:57.220Z,96039.81
2019-01-12T19:55:24.579Z,96042.53
2019-01-12T19:57:52.333Z,96037.95
2019-01-12T20:00:24.753Z,96043.27
2019-01-12T20:02:51.983Z,96034.17
2019-01-12T20:05:19.262Z,96025.08
2019-01-12T20:07:48.016Z,96017.83
2019-01-12T20:10:18.493Z,96022.81
2019-01-12T20:12:45.776Z,96015.17
2019-01-12T20:15:20.684Z,96015.68
2019-01-12T20:17:48.807Z,96009.25
2019-01-12T20:20:17.431Z,96004.64
2019-01-12T20:22:45.028Z,96011.45
2019-01-12T20:25:19.601Z,96011.65
2019-01-12T20:27:46.858Z,96005.72
2019-01-12T20:30:28.052Z,96023.95
2019-01-12T20:33:21.074Z,96016.20
2019-01-12T20:36:31.321Z,96011.94
2019-01-12T20:39:34.027Z,96014.46
2019-01-12T20:42:25.614Z,96008.05
2019-01-12T20:45:52.884Z,96001.02
2019-01-12T20:48:37.263Z,95985.63
2019-01-12T20:52:01.510Z,95996.41
2019-01-12T20:55:03.568Z,95997.93
2019-01-12T20:57:40.634Z,95990.17
2019-01-12T21:00:55.227Z,95986.31
2019-01-12T21:03:52.352Z,95983.35
2019-01-12T21:06:38.708Z,95974.58
2019-01-12T21:09:37.504Z,95971.93
2019-01-12T21:12:45.232Z,95973.64
2019-01-12T21:15:17.820Z,95964.55
2019-01-12T21:17:45.628Z,95952.63
2019-01-12T21:20:13.016Z,95957.92
2019-01-12T21:22:40.358Z,95953.64
2019-01-12T21:25:07.873Z,95941.91
2019-01-12T21:27:36.628Z,95936.29
2019-01-12T21:30:07.813Z,95919.38
2019-01-12T21:32:37.784Z,95929.16
2019-01-12T21:35:06.922Z,95920.20
2019-01-12T21:37:35.605Z,95921.33
2019-01-12T21:40:03.998Z,95907.58
2019-01-12T21:42:31.244Z,95909.22
2019-01-12T21:44:58.542Z,95901.07
2019-01-12T21:47:26.807Z,95909.64
2019-01-12T21:49:54.017Z,95901.89
2019-01-12T21:52:22.507Z,95904.23
2019-01-12T21:54:49.725Z,95896.27
2019-01-12T21:57:18.953Z,95901.77
2019-01-12T21:59:49.112Z,95882.02
2019-01-12T22:02:16.379Z,95899.05
2019-01-12T22:04:43.589Z,95890.59
2019-01-12T22:07:11.139Z,95881.19
2019-01-12T22:09:38.375Z,95883.72
2019-01-12T22:12:05.569Z,95883.72
2019-01-12T22:14:32.758Z,95879.75
2019-01-12T22:17:01.307Z,95878.61
2019-01-12T22:19:29.446Z,95870.78
2019-01-12T22:21:56.625Z,95873.44
2019-01-12T22:24:23.914Z,95869.66
2019-01-12T22:26:51.150Z,95862.72
2019-01-12T22:29:18.405Z,95858.93
2019-01-12T22:31:45.611Z,95854.14
2019-01-12T22:34:13.889Z,95849.66
2019-01-12T22:36:41.064Z,95842.72
2019-01-12T22:39:09.049Z,95850.28
2019-01-12T22:41:36.740Z,95838.55
2019-01-12T22:44:06.480Z,95840.38
2019-01-12T22:46:33.690Z,95831.61
2019-01-12T22:49:00.887Z,95836.41
2019-01-12T22:51:28.088Z,95828.45
2019-01-12T22:53:55.243Z,95827.13
2019-01-12T22:56:22.721Z,95831.81
2019-01-12T22:58:49.931Z,95817.55
2019-01-12T23:01:41.479Z,95819.88
2019-01-12T23:04:08.975Z,95813.57
2019-01-12T23:06:36.210Z,95811.94
2019-01-12T23:09:07.952Z,95811.12
2019-01-12T23:11:35.173Z,95807.64
2019-01-12T23:14:02.300Z,95800.71
2019-01-12T23:16:30.468Z,95797.24
2019-01-12T23:18:57.681Z,95794.09
2019-01-12T23:21:24.965Z,95786.45
2019-01-12T23:23:52.150Z,95794.40
2019-01-12T23:26:19.283Z,95788.91
2019-01-12T23:28:46.440Z,95784.34
2019-01-12T23:31:13.565Z,95778.84
2019-01-12T23:33:40.703Z,95781.19
2019-01-12T23:36:07.843Z,95772.22
2019-01-12T23:38:34.981Z,95772.65
2019-01-12T23:41:02.142Z,95761.85
2019-01-12T23:43:29.288Z,95759.20
2019-01-12T23:45:56.467Z,95754.52
2019-01-12T23:48:23.588Z,95754.29
2019-01-12T23:50:50.723Z,95756.66
2019-01-12T23:53:17.846Z,95760.41
2019-01-12T23:55:45.053Z,95750.63
2019-01-12T23:58:12.250Z,95752.38
